Time;durP1;ratioP1;P1;durP2;ratioP2;P2;SDS_P1;SDS_P2;PMS_P1;PMS_P2;Temp;Humidity;BMP_temperature;BMP_pressure;BME280_temperature;BME280_humidity;BME280_pressure;Samples;Min_cycle;Max_cycle;Signal;HPM_P1;HPM_P2
2022/01/05 00:00:19;;;;;;;9.82;3.17;;;;;;;;;;5147793;27;20427;-81
2022/01/05 00:02:46;;;;;;;15.90;2.90;;;;;;;;;;5131770;27;20101;-82
2022/01/05 00:05:12;;;;;;;11.43;2.60;;;;;;;;;;5150799;27;20081;-81
2022/01/05 00:07:39;;;;;;;13.75;2.63;;;;;;;;;;5156292;27;20047;-81
2022/01/05 00:10:05;;;;;;;16.52;3.40;;;;;;;;;;5151027;27;20055;-81
2022/01/05 00:12:32;;;;;;;11.52;3.30;;;;;;;;;;5137168;27;20501;-81
2022/01/05 00:14:58;;;;;;;8.13;1.80;;;;;;;;;;5150266;27;20197;-81
2022/01/05 00:17:25;;;;;;;8.65;2.10;;;;;;;;;;5131480;27;20108;-81
2022/01/05 00:19:51;;;;;;;13.23;1.58;;;;;;;;;;5145416;27;20051;-81
2022/01/05 00:22:17;;;;;;;6.70;1.25;;;;;;;;;;5147051;27;20075;-81
2022/01/05 00:24:44;;;;;;;7.70;1.83;;;;;;;;;;5150564;27;20083;-81
2022/01/05 00:27:10;;;;;;;10.93;2.10;;;;;;;;;;5146287;27;20115;-81
2022/01/05 00:29:36;;;;;;;5.50;1.63;;;;;;;;;;5127600;27;20082;-81
2022/01/05 00:32:04;;;;;;;12.15;1.92;;;;;;;;;;5131909;27;20541;-81
2022/01/05 00:34:30;;;;;;;9.13;1.70;;;;;;;;;;5149888;27;20483;-81
2022/01/05 00:36:56;;;;;;;8.02;1.45;;;;;;;;;;5140230;27;20044;-81
2022/01/05 00:39:23;;;;;;;6.78;1.60;;;;;;;;;;5153535;27;20985;-81
2022/01/05 00:41:49;;;;;;;8.55;1.45;;;;;;;;;;5136246;27;20578;-81
2022/01/05 00:44:16;;;;;;;10.90;1.23;;;;;;;;;;5143286;27;20587;-81
2022/01/05 00:46:42;;;;;;;8.48;1.50;;;;;;;;;;5152959;27;20124;-81
2022/01/05 00:49:09;;;;;;;7.43;1.45;;;;;;;;;;5146884;27;21182;-81
2022/01/05 00:51:35;;;;;;;10.70;1.73;;;;;;;;;;5140679;27;20059;-81
2022/01/05 00:54:01;;;;;;;9.27;1.85;;;;;;;;;;5151498;27;20055;-81
2022/01/05 00:56:28;;;;;;;9.50;1.50;;;;;;;;;;5138972;27;20051;-81
2022/01/05 00:58:54;;;;;;;16.00;2.38;;;;;;;;;;5130267;27;20138;-82
2022/01/05 01:01:20;;;;;;;9.10;1.30;;;;;;;;;;5151091;27;20086;-81
2022/01/05 01:03:47;;;;;;;10.05;1.88;;;;;;;;;;5139609;27;20142;-82
2022/01/05 01:06:14;;;;;;;11.07;1.77;;;;;;;;;;5149254;27;20136;-81
2022/01/05 01:08:40;;;;;;;10.80;1.80;;;;;;;;;;5139139;27;20051;-81
2022/01/05 01:11:07;;;;;;;12.82;1.65;;;;;;;;;;5138470;27;20049;-82
2022/01/05 01:13:33;;;;;;;10.75;1.83;;;;;;;;;;5132393;27;20051;-81
2022/01/05 01:15:59;;;;;;;13.80;1.45;;;;;;;;;;5151109;27;20051;-81
2022/01/05 01:18:26;;;;;;;8.70;1.60;;;;;;;;;;5131855;27;20082;-82
2022/01/05 01:20:52;;;;;;;18.98;1.92;;;;;;;;;;5132598;27;20117;-81
2022/01/05 01:23:21;;;;;;;10.25;1.45;;;;;;;;;;5148915;27;20835;-81
2022/01/05 01:25:49;;;;;;;9.82;1.50;;;;;;;;;;5145137;27;20132;-81
2022/01/05 01:28:15;;;;;;;9.20;1.77;;;;;;;;;;5156372;27;20051;-81
2022/01/05 01:30:42;;;;;;;8.10;1.42;;;;;;;;;;5150247;27;20047;-81
2022/01/05 01:33:08;;;;;;;12.85;2.42;;;;;;;;;;5149356;27;20059;-81
2022/01/05 01:35:35;;;;;;;9.73;1.77;;;;;;;;;;5132623;27;20130;-81
2022/01/05 01:38:01;;;;;;;7.13;1.58;;;;;;;;;;5144968;27;20079;-81
2022/01/05 01:40:28;;;;;;;13.52;2.20;;;;;;;;;;5148986;27;20453;-81
2022/01/05 01:42:54;;;;;;;7.57;1.65;;;;;;;;;;5141497;27;20058;-81
2022/01/05 01:45:20;;;;;;;7.13;1.67;;;;;;;;;;5131350;27;20079;-81
2022/01/05 01:47:47;;;;;;;8.50;2.03;;;;;;;;;;5133195;27;20047;-82
2022/01/05 01:50:13;;;;;;;8.25;2.33;;;;;;;;;;5148244;27;20043;-81
2022/01/05 01:52:40;;;;;;;10.00;1.80;;;;;;;;;;5130758;27;20047;-81
2022/01/05 01:55:07;;;;;;;15.27;1.92;;;;;;;;;;5150043;27;20051;-81
2022/01/05 01:57:34;;;;;;;14.50;2.15;;;;;;;;;;5144056;27;20667;-81
2022/01/05 02:00:01;;;;;;;8.82;1.95;;;;;;;;;;5122728;27;20083;-81
2022/01/05 02:02:27;;;;;;;6.80;2.13;;;;;;;;;;5146872;27;20083;-81
2022/01/05 02:04:54;;;;;;;10.30;2.00;;;;;;;;;;5136989;27;20051;-81
2022/01/05 02:07:21;;;;;;;10.40;1.90;;;;;;;;;;5152660;27;20051;-81
2022/01/05 02:09:47;;;;;;;9.07;1.90;;;;;;;;;;5149288;27;20052;-81
2022/01/05 02:12:13;;;;;;;8.52;1.67;;;;;;;;;;5144525;27;20586;-81
2022/01/05 02:14:40;;;;;;;9.15;1.90;;;;;;;;;;5138242;27;20050;-81
2022/01/05 02:17:15;;;;;;;20.08;2.63;;;;;;;;;;5142747;27;20047;-81
2022/01/05 02:19:42;;;;;;;10.60;1.88;;;;;;;;;;5138270;27;20133;-81
2022/01/05 02:22:08;;;;;;;13.88;2.25;;;;;;;;;;5138736;27;20090;-81
2022/01/05 02:24:34;;;;;;;7.63;1.70;;;;;;;;;;5137378;27;20085;-81
2022/01/05 02:27:01;;;;;;;11.02;1.92;;;;;;;;;;5154416;27;20051;-81
2022/01/05 02:29:27;;;;;;;9.95;2.13;;;;;;;;;;5151240;27;20069;-81
2022/01/05 02:31:55;;;;;;;9.30;1.50;;;;;;;;;;5150066;27;20055;-81
2022/01/05 02:34:22;;;;;;;7.95;1.70;;;;;;;;;;5139492;27;20050;-81
2022/01/05 02:36:48;;;;;;;15.50;1.73;;;;;;;;;;5149613;27;20135;-81
2022/01/05 02:39:14;;;;;;;10.00;1.63;;;;;;;;;;5142875;27;20091;-81
2022/01/05 02:41:41;;;;;;;11.32;2.15;;;;;;;;;;5130092;27;20145;-81
2022/01/05 02:44:07;;;;;;;12.50;2.00;;;;;;;;;;5142921;27;20482;-81
2022/01/05 02:46:34;;;;;;;9.85;2.22;;;;;;;;;;5146978;27;20667;-81
2022/01/05 02:49:03;;;;;;;9.40;1.58;;;;;;;;;;5142774;27;21016;-81
2022/01/05 02:51:29;;;;;;;9.27;2.25;;;;;;;;;;5148792;27;20615;-81
2022/01/05 02:53:55;;;;;;;9.23;1.88;;;;;;;;;;5130099;27;20055;-81
2022/01/05 02:56:22;;;;;;;10.48;1.77;;;;;;;;;;5148831;27;22031;-80
2022/01/05 02:58:48;;;;;;;6.45;1.50;;;;;;;;;;5143209;27;20055;-81
2022/01/05 03:01:15;;;;;;;10.02;1.70;;;;;;;;;;5136909;27;20137;-81
2022/01/05 03:03:41;;;;;;;6.72;1.52;;;;;;;;;;5148843;27;20066;-81
2022/01/05 03:06:08;;;;;;;11.85;1.92;;;;;;;;;;5149236;27;20108;-81
2022/01/05 03:08:34;;;;;;;14.73;2.78;;;;;;;;;;5126894;27;20047;-81
2022/01/05 03:11:00;;;;;;;11.10;1.95;;;;;;;;;;5129373;27;20150;-81
2022/01/05 03:13:27;;;;;;;6.75;2.00;;;;;;;;;;5137442;27;20090;-81
2022/01/05 03:15:54;;;;;;;12.13;1.80;;;;;;;;;;5152486;27;20132;-81
2022/01/05 03:18:21;;;;;;;11.48;1.60;;;;;;;;;;5138327;27;20051;-81
2022/01/05 03:20:47;;;;;;;11.10;2.42;;;;;;;;;;5152337;27;20498;-82
2022/01/05 03:23:14;;;;;;;14.13;1.92;;;;;;;;;;5142652;27;20047;-81
2022/01/05 03:25:41;;;;;;;9.63;1.40;;;;;;;;;;5135920;27;20206;-81
2022/01/05 03:28:08;;;;;;;9.55;1.67;;;;;;;;;;5142119;27;20848;-81
2022/01/05 03:30:34;;;;;;;12.63;2.63;;;;;;;;;;5133545;27;20039;-81
2022/01/05 03:35:28;;;;;;;12.85;2.10;;;;;;;;;;5152060;27;20638;-81
2022/01/05 03:37:55;;;;;;;11.35;2.10;;;;;;;;;;5141028;27;20059;-81
2022/01/05 03:40:21;;;;;;;10.77;1.92;;;;;;;;;;5140169;27;20991;-81
2022/01/05 03:42:48;;;;;;;14.43;1.80;;;;;;;;;;5157354;27;20566;-81
2022/01/05 03:45:14;;;;;;;8.73;1.75;;;;;;;;;;5151916;27;20063;-80
2022/01/05 03:47:41;;;;;;;14.95;1.77;;;;;;;;;;5151766;27;20588;-81
2022/01/05 03:50:07;;;;;;;12.13;2.00;;;;;;;;;;5152552;27;20101;-81
2022/01/05 03:52:34;;;;;;;10.50;2.15;;;;;;;;;;5145075;27;20059;-81
2022/01/05 03:55:00;;;;;;;7.03;1.88;;;;;;;;;;5141726;27;20094;-81
2022/01/05 03:57:27;;;;;;;15.10;1.90;;;;;;;;;;5146862;27;20505;-80
2022/01/05 03:59:53;;;;;;;10.65;1.90;;;;;;;;;;5139338;27;20899;-81
2022/01/05 04:02:20;;;;;;;15.32;1.92;;;;;;;;;;5142426;27;20031;-81
2022/01/05 04:04:46;;;;;;;8.20;1.80;;;;;;;;;;5136118;27;20132;-81
2022/01/05 04:07:13;;;;;;;11.00;2.03;;;;;;;;;;5132565;27;20082;-81
2022/01/05 04:09:40;;;;;;;10.57;1.88;;;;;;;;;;5144372;27;20105;-81
2022/01/05 04:12:07;;;;;;;11.38;2.05;;;;;;;;;;5139268;27;20566;-81
2022/01/05 04:14:33;;;;;;;13.18;2.20;;;;;;;;;;5146376;27;20074;-81
2022/01/05 04:17:02;;;;;;;11.00;2.53;;;;;;;;;;5151350;27;20947;-81
2022/01/05 04:19:29;;;;;;;11.02;2.00;;;;;;;;;;5148771;27;20081;-80
2022/01/05 04:21:55;;;;;;;15.70;2.45;;;;;;;;;;5157550;27;20635;-80
2022/01/05 04:24:21;;;;;;;12.30;2.13;;;;;;;;;;5132938;27;20104;-81
2022/01/05 04:26:48;;;;;;;18.77;2.42;;;;;;;;;;5150410;27;20078;-81
2022/01/05 04:29:14;;;;;;;13.02;2.17;;;;;;;;;;5151177;27;20131;-81
2022/01/05 04:31:41;;;;;;;14.35;2.22;;;;;;;;;;5151931;27;20055;-81
2022/01/05 04:34:07;;;;;;;11.20;2.95;;;;;;;;;;5155327;27;20047;-81
2022/01/05 04:36:54;;;;;;;10.38;1.80;;;;;;;;;;5133970;27;20057;-81
2022/01/05 04:39:20;;;;;;;10.60;2.28;;;;;;;;;;5130999;27;20142;-81
2022/01/05 04:41:46;;;;;;;16.75;2.15;;;;;;;;;;5139641;27;20047;-80
2022/01/05 04:44:13;;;;;;;11.27;2.20;;;;;;;;;;5150535;27;20980;-80
2022/01/05 04:46:39;;;;;;;18.25;2.00;;;;;;;;;;5140251;27;20066;-80
2022/01/05 04:49:06;;;;;;;16.90;2.45;;;;;;;;;;5138122;27;20868;-80
2022/01/05 04:51:32;;;;;;;15.80;2.42;;;;;;;;;;5150807;27;20641;-81
2022/01/05 04:53:58;;;;;;;11.77;1.80;;;;;;;;;;5141608;27;20059;-81
2022/01/05 04:56:27;;;;;;;19.45;2.75;;;;;;;;;;5145768;27;20080;-80
2022/01/05 04:58:56;;;;;;;19.73;2.20;;;;;;;;;;5140822;27;20502;-81
2022/01/05 05:01:22;;;;;;;13.35;2.15;;;;;;;;;;5150344;27;20055;-80
2022/01/05 05:03:50;;;;;;;14.32;2.10;;;;;;;;;;5137986;27;20139;-79
2022/01/05 05:06:16;;;;;;;9.77;2.33;;;;;;;;;;5136108;27;20505;-81
2022/01/05 05:08:43;;;;;;;9.77;2.40;;;;;;;;;;5148330;27;20043;-80
2022/01/05 05:11:09;;;;;;;19.40;2.83;;;;;;;;;;5149187;27;20129;-82
2022/01/05 05:13:35;;;;;;;13.40;2.28;;;;;;;;;;5131096;27;20051;-80
2022/01/05 05:16:02;;;;;;;15.43;2.25;;;;;;;;;;5155323;27;20050;-81
2022/01/05 05:18:29;;;;;;;17.60;2.47;;;;;;;;;;5149277;27;20054;-80
2022/01/05 05:20:55;;;;;;;15.35;2.17;;;;;;;;;;5126560;27;20101;-80
2022/01/05 05:23:21;;;;;;;10.48;2.13;;;;;;;;;;5146061;27;20112;-80
2022/01/05 05:25:48;;;;;;;12.23;2.08;;;;;;;;;;5139201;27;20129;-82
2022/01/05 05:28:14;;;;;;;15.70;2.22;;;;;;;;;;5130402;27;21434;-80
2022/01/05 05:30:40;;;;;;;12.75;2.08;;;;;;;;;;5145041;27;20089;-81
2022/01/05 05:33:07;;;;;;;11.52;2.47;;;;;;;;;;5130659;27;20476;-79
2022/01/05 05:35:33;;;;;;;16.60;2.40;;;;;;;;;;5150802;27;20051;-81
2022/01/05 05:38:00;;;;;;;15.52;2.45;;;;;;;;;;5148817;27;20108;-80
2022/01/05 05:40:26;;;;;;;13.13;2.30;;;;;;;;;;5148036;27;20040;-83
2022/01/05 05:42:53;;;;;;;15.15;2.38;;;;;;;;;;5138542;27;20136;-81
2022/01/05 05:45:19;;;;;;;15.73;2.63;;;;;;;;;;5149067;27;20054;-80
2022/01/05 05:47:46;;;;;;;11.32;2.30;;;;;;;;;;5149132;27;20075;-80
2022/01/05 05:50:12;;;;;;;14.95;2.33;;;;;;;;;;5146246;27;20050;-80
2022/01/05 05:52:38;;;;;;;16.25;2.83;;;;;;;;;;5140282;27;20083;-79
2022/01/05 05:55:05;;;;;;;9.43;2.00;;;;;;;;;;5145518;27;20091;-83
2022/01/05 05:57:40;;;;;;;14.68;2.60;;;;;;;;;;5151635;27;20051;-81
2022/01/05 06:00:07;;;;;;;10.15;2.10;;;;;;;;;;5148032;27;20058;-79
2022/01/05 06:02:33;;;;;;;14.90;2.30;;;;;;;;;;5142135;27;20055;-79
2022/01/05 06:05:00;;;;;;;16.10;1.65;;;;;;;;;;5135542;27;20051;-82
2022/01/05 06:07:26;;;;;;;15.90;2.60;;;;;;;;;;5148718;27;20050;-80
2022/01/05 06:09:53;;;;;;;12.82;2.45;;;;;;;;;;5155862;27;20098;-80
2022/01/05 06:12:19;;;;;;;16.40;2.20;;;;;;;;;;5135911;27;20051;-80
2022/01/05 06:14:45;;;;;;;14.65;2.33;;;;;;;;;;5136742;27;20140;-80
2022/01/05 06:17:12;;;;;;;9.57;2.45;;;;;;;;;;5150602;27;20054;-80
2022/01/05 06:19:38;;;;;;;19.60;2.80;;;;;;;;;;5137755;27;20566;-80
2022/01/05 06:22:04;;;;;;;14.30;2.75;;;;;;;;;;5123468;27;20059;-80
2022/01/05 06:24:31;;;;;;;13.30;2.00;;;;;;;;;;5148249;27;20574;-81
2022/01/05 06:26:58;;;;;;;11.82;2.35;;;;;;;;;;5147859;27;20848;-80
2022/01/05 06:29:24;;;;;;;13.10;2.35;;;;;;;;;;5145541;27;20091;-80
2022/01/05 06:31:51;;;;;;;14.00;2.45;;;;;;;;;;5142385;27;20051;-80
2022/01/05 06:34:17;;;;;;;8.00;2.10;;;;;;;;;;5140960;27;20043;-81
2022/01/05 06:36:44;;;;;;;10.65;2.60;;;;;;;;;;5139582;27;20107;-79
2022/01/05 06:39:11;;;;;;;13.77;2.00;;;;;;;;;;5143261;27;20355;-80
2022/01/05 06:41:38;;;;;;;19.27;2.92;;;;;;;;;;5128672;27;20047;-82
2022/01/05 06:44:04;;;;;;;10.68;2.60;;;;;;;;;;5131700;27;20090;-80
2022/01/05 06:46:31;;;;;;;16.23;2.47;;;;;;;;;;5151325;27;20048;-80
2022/01/05 06:48:57;;;;;;;11.25;2.33;;;;;;;;;;5137692;27;20065;-79
2022/01/05 06:51:23;;;;;;;19.90;2.72;;;;;;;;;;5151646;27;20520;-79
2022/01/05 06:53:50;;;;;;;10.68;2.13;;;;;;;;;;5149438;27;20574;-80
2022/01/05 06:56:16;;;;;;;12.85;2.92;;;;;;;;;;5152279;27;20137;-80
2022/01/05 06:58:42;;;;;;;15.07;2.67;;;;;;;;;;5152109;27;20086;-82
2022/01/05 07:01:09;;;;;;;16.60;2.30;;;;;;;;;;5148318;27;20121;-80
2022/01/05 07:03:35;;;;;;;17.90;2.50;;;;;;;;;;5130599;27;20105;-80
2022/01/05 07:06:02;;;;;;;12.02;2.40;;;;;;;;;;5147541;27;20525;-80
2022/01/05 07:08:28;;;;;;;12.40;2.47;;;;;;;;;;5152125;27;20051;-79
2022/01/05 07:10:56;;;;;;;18.77;2.33;;;;;;;;;;5134841;27;20501;-81
2022/01/05 07:13:23;;;;;;;21.02;3.00;;;;;;;;;;5133920;27;20882;-79
2022/01/05 07:15:49;;;;;;;15.00;2.85;;;;;;;;;;5140278;27;20255;-80
2022/01/05 07:18:16;;;;;;;21.30;3.42;;;;;;;;;;5151268;27;20062;-80
2022/01/05 07:20:42;;;;;;;15.77;2.17;;;;;;;;;;5139253;27;20086;-80
2022/01/05 07:23:10;;;;;;;10.60;2.15;;;;;;;;;;5131910;27;20051;-79
2022/01/05 07:25:38;;;;;;;12.95;2.42;;;;;;;;;;5139772;27;20063;-80
2022/01/05 07:28:05;;;;;;;11.32;2.20;;;;;;;;;;5139782;27;20074;-79
2022/01/05 07:30:31;;;;;;;14.00;2.78;;;;;;;;;;5144922;27;20055;-80
2022/01/05 07:32:58;;;;;;;18.77;2.63;;;;;;;;;;5150950;27;20047;-80
2022/01/05 07:35:24;;;;;;;21.17;2.80;;;;;;;;;;5147061;27;20695;-80
2022/01/05 07:37:50;;;;;;;15.63;3.13;;;;;;;;;;5133520;27;20575;-83
2022/01/05 07:40:17;;;;;;;22.30;2.70;;;;;;;;;;5142459;27;20101;-81
2022/01/05 07:42:43;;;;;;;11.73;2.17;;;;;;;;;;5150995;27;20134;-80
2022/01/05 07:45:10;;;;;;;24.95;3.40;;;;;;;;;;5125039;27;20058;-79
2022/01/05 07:47:37;;;;;;;21.92;3.35;;;;;;;;;;5151042;27;20051;-79
2022/01/05 07:50:04;;;;;;;15.45;2.45;;;;;;;;;;5150240;27;20055;-82
2022/01/05 07:52:30;;;;;;;23.85;3.40;;;;;;;;;;5132981;27;20104;-81
2022/01/05 07:54:56;;;;;;;20.85;2.83;;;;;;;;;;5133963;27;20539;-79
2022/01/05 07:57:23;;;;;;;22.08;2.85;;;;;;;;;;5145924;27;20530;-79
2022/01/05 07:59:49;;;;;;;15.07;3.10;;;;;;;;;;5125329;27;20087;-79
2022/01/05 08:02:15;;;;;;;15.10;2.88;;;;;;;;;;5148357;27;20055;-79
2022/01/05 08:04:46;;;;;;;22.05;3.05;;;;;;;;;;5133110;27;20051;-84
2022/01/05 08:07:13;;;;;;;21.85;2.90;;;;;;;;;;5139557;27;20493;-81
2022/01/05 08:09:39;;;;;;;21.17;2.65;;;;;;;;;;5139538;27;20537;-79
2022/01/05 08:12:06;;;;;;;15.45;2.20;;;;;;;;;;5114204;27;20610;-80
2022/01/05 08:14:32;;;;;;;18.73;3.17;;;;;;;;;;5127212;27;20054;-80
2022/01/05 08:16:59;;;;;;;16.08;2.40;;;;;;;;;;5151071;27;20145;-79
2022/01/05 08:19:25;;;;;;;16.80;3.10;;;;;;;;;;5150257;27;20105;-79
2022/01/05 08:21:52;;;;;;;15.20;2.83;;;;;;;;;;5135307;27;20055;-79
2022/01/05 08:24:18;;;;;;;23.50;3.35;;;;;;;;;;5134638;27;20079;-79
2022/01/05 08:26:45;;;;;;;15.48;2.92;;;;;;;;;;5149823;27;20524;-80
2022/01/05 08:29:11;;;;;;;19.45;2.90;;;;;;;;;;5153208;27;20059;-83
2022/01/05 08:31:37;;;;;;;18.40;3.05;;;;;;;;;;5130916;27;20055;-82
2022/01/05 08:34:04;;;;;;;22.30;3.53;;;;;;;;;;5151725;27;20058;-79
2022/01/05 08:36:30;;;;;;;22.13;3.33;;;;;;;;;;5149847;27;20133;-79
2022/01/05 08:38:57;;;;;;;16.02;3.03;;;;;;;;;;5149048;27;20104;-79
2022/01/05 08:41:23;;;;;;;17.08;2.05;;;;;;;;;;5150004;27;20506;-80
2022/01/05 08:43:50;;;;;;;13.63;1.92;;;;;;;;;;5148310;27;20128;-79
2022/01/05 08:46:17;;;;;;;17.58;3.50;;;;;;;;;;5148240;27;20047;-78
2022/01/05 08:48:43;;;;;;;13.57;2.88;;;;;;;;;;5144038;27;20146;-79
2022/01/05 08:51:10;;;;;;;11.15;2.10;;;;;;;;;;5138971;27;20136;-79
2022/01/05 08:53:39;;;;;;;14.05;3.13;;;;;;;;;;5130658;27;21125;-78
2022/01/05 08:56:06;;;;;;;20.42;2.47;;;;;;;;;;5130808;27;20885;-78
2022/01/05 08:58:32;;;;;;;16.30;3.22;;;;;;;;;;5138010;27;20043;-79
2022/01/05 09:00:58;;;;;;;19.90;3.10;;;;;;;;;;5149550;27;20081;-78
2022/01/05 09:03:25;;;;;;;16.20;2.70;;;;;;;;;;5126755;27;20051;-80
2022/01/05 09:05:52;;;;;;;20.73;2.90;;;;;;;;;;5128294;27;20133;-79
2022/01/05 09:08:18;;;;;;;20.83;3.30;;;;;;;;;;5148744;27;20051;-78
2022/01/05 09:10:45;;;;;;;14.40;2.20;;;;;;;;;;5128514;27;20523;-79
2022/01/05 09:13:12;;;;;;;19.27;2.13;;;;;;;;;;5136572;27;20097;-76
2022/01/05 09:15:40;;;;;;;17.30;2.53;;;;;;;;;;5144025;27;20082;-77
2022/01/05 09:18:06;;;;;;;19.90;2.72;;;;;;;;;;5146159;27;20047;-77
2022/01/05 09:20:33;;;;;;;16.65;3.00;;;;;;;;;;5157448;27;20082;-77
2022/01/05 09:23:02;;;;;;;24.50;3.05;;;;;;;;;;5149242;27;20135;-77
2022/01/05 09:25:28;;;;;;;20.65;2.72;;;;;;;;;;5140038;27;20059;-78
2022/01/05 09:27:54;;;;;;;22.27;2.80;;;;;;;;;;5139582;27;20055;-79
2022/01/05 09:30:22;;;;;;;18.85;3.05;;;;;;;;;;5144332;27;20170;-79
2022/01/05 09:32:49;;;;;;;17.48;2.85;;;;;;;;;;5152046;27;20043;-79
2022/01/05 09:35:19;;;;;;;13.60;2.60;;;;;;;;;;5140779;27;20134;-78
2022/01/05 09:38:36;;;;;;;20.60;2.55;;;;;;;;;;5148388;27;20599;-79
2022/01/05 09:43:21;;;;;;;18.38;3.55;;;;;;;;;;5149686;27;20082;-78
2022/01/05 09:45:59;;;;;;;14.48;2.85;;;;;;;;;;5158613;27;20532;-79
2022/01/05 09:48:39;;;;;;;24.48;3.33;;;;;;;;;;5138172;27;20055;-79
2022/01/05 09:51:09;;;;;;;19.52;2.92;;;;;;;;;;5149054;27;20086;-79
2022/01/05 09:53:39;;;;;;;17.20;3.05;;;;;;;;;;5139238;27;20101;-78
2022/01/05 09:56:25;;;;;;;22.92;3.63;;;;;;;;;;5152181;27;20046;-83
2022/01/05 09:58:52;;;;;;;18.80;2.97;;;;;;;;;;5161044;27;20051;-81
2022/01/05 10:01:18;;;;;;;26.80;4.10;;;;;;;;;;5132447;27;20089;-77
2022/01/05 10:03:45;;;;;;;22.13;3.25;;;;;;;;;;5122332;27;20051;-77
2022/01/05 10:06:12;;;;;;;28.15;3.65;;;;;;;;;;5132542;27;20475;-77
2022/01/05 10:08:39;;;;;;;22.77;3.67;;;;;;;;;;5144604;27;20113;-79
2022/01/05 10:11:08;;;;;;;28.70;3.97;;;;;;;;;;5152868;27;20138;-78
2022/01/05 10:13:35;;;;;;;21.85;3.53;;;;;;;;;;5132627;27;20092;-78
2022/01/05 10:16:01;;;;;;;22.63;3.45;;;;;;;;;;5154643;27;20097;-80
2022/01/05 10:18:37;;;;;;;22.30;2.97;;;;;;;;;;5150462;27;20055;-78
2022/01/05 10:21:05;;;;;;;24.70;3.58;;;;;;;;;;5162970;27;20063;-78
2022/01/05 10:23:33;;;;;;;13.52;2.30;;;;;;;;;;5132744;27;20124;-77
2022/01/05 10:26:19;;;;;;;30.05;3.10;;;;;;;;;;5134665;27;20075;-78
2022/01/05 10:28:46;;;;;;;23.83;3.85;;;;;;;;;;5151137;27;20085;-78
2022/01/05 10:31:17;;;;;;;21.13;3.63;;;;;;;;;;5138612;27;20123;-78
2022/01/05 10:33:44;;;;;;;29.30;3.28;;;;;;;;;;5159592;27;20537;-77
2022/01/05 10:36:11;;;;;;;24.08;3.25;;;;;;;;;;5124872;27;20059;-77
2022/01/05 10:38:37;;;;;;;25.77;3.08;;;;;;;;;;5134910;27;20051;-77
2022/01/05 10:41:13;;;;;;;28.23;3.90;;;;;;;;;;5151678;27;20043;-78
2022/01/05 10:44:00;;;;;;;29.67;3.85;;;;;;;;;;5151159;27;20599;-81
2022/01/05 10:46:34;;;;;;;28.77;3.50;;;;;;;;;;5132926;27;20059;-79
2022/01/05 10:49:03;;;;;;;24.58;3.03;;;;;;;;;;5144485;27;20047;-79
2022/01/05 10:51:32;;;;;;;17.80;3.90;;;;;;;;;;5129732;27;20055;-81
2022/01/05 10:54:12;;;;;;;31.35;4.38;;;;;;;;;;5151011;27;20097;-78
2022/01/05 10:56:39;;;;;;;24.00;3.30;;;;;;;;;;5130660;27;20086;-84
2022/01/05 10:59:05;;;;;;;19.15;2.97;;;;;;;;;;5135120;27;20055;-78
2022/01/05 11:01:32;;;;;;;25.60;3.15;;;;;;;;;;5149080;27;20051;-79
2022/01/05 11:03:58;;;;;;;20.90;3.15;;;;;;;;;;5151589;27;20055;-78
2022/01/05 11:06:25;;;;;;;22.40;3.05;;;;;;;;;;5151547;27;20044;-81
2022/01/05 11:08:52;;;;;;;20.63;2.72;;;;;;;;;;5132535;27;20059;-79
2022/01/05 11:11:37;;;;;;;23.90;3.33;;;;;;;;;;5123719;27;20131;-79
2022/01/05 11:14:10;;;;;;;16.58;3.22;;;;;;;;;;5143155;27;20138;-79
2022/01/05 11:16:38;;;;;;;27.88;3.53;;;;;;;;;;5129906;27;20090;-78
2022/01/05 11:19:10;;;;;;;26.80;2.67;;;;;;;;;;5150548;27;20127;-79
2022/01/05 11:21:38;;;;;;;39.60;3.03;;;;;;;;;;5152423;27;20088;-79
2022/01/05 11:24:04;;;;;;;22.20;3.10;;;;;;;;;;5157360;27;20063;-84
2022/01/05 11:26:35;;;;;;;16.23;2.42;;;;;;;;;;5159744;27;20336;-80
2022/01/05 11:29:04;;;;;;;16.17;2.35;;;;;;;;;;5135354;27;20096;-78
2022/01/05 11:31:31;;;;;;;19.95;2.85;;;;;;;;;;5161637;27;20508;-80
2022/01/05 11:33:58;;;;;;;23.33;2.67;;;;;;;;;;5148527;27;20051;-79
2022/01/05 11:36:25;;;;;;;20.10;2.50;;;;;;;;;;5148714;27;20116;-80
2022/01/05 11:39:00;;;;;;;23.90;2.97;;;;;;;;;;5134863;27;20061;-80
2022/01/05 11:41:27;;;;;;;23.02;3.10;;;;;;;;;;5148057;27;20051;-79
2022/01/05 11:43:53;;;;;;;22.38;3.25;;;;;;;;;;5133032;27;20926;-83
2022/01/05 11:46:21;;;;;;;17.80;2.67;;;;;;;;;;5147950;27;20090;-80
2022/01/05 11:48:58;;;;;;;20.60;3.05;;;;;;;;;;5129300;27;20126;-80
2022/01/05 11:51:32;;;;;;;17.05;3.00;;;;;;;;;;5133238;27;20417;-80
2022/01/05 11:54:15;;;;;;;17.38;2.15;;;;;;;;;;5133272;27;20513;-79
2022/01/05 11:56:43;;;;;;;22.38;2.83;;;;;;;;;;5145506;27;20133;-83
2022/01/05 11:59:20;;;;;;;16.30;2.50;;;;;;;;;;5150745;27;20097;-79
2022/01/05 12:01:56;;;;;;;17.98;2.28;;;;;;;;;;5150153;27;20403;-84
2022/01/05 12:04:23;;;;;;;16.20;2.65;;;;;;;;;;5143175;27;21141;-79
2022/01/05 12:06:49;;;;;;;23.83;3.33;;;;;;;;;;5150405;27;20650;-78
2022/01/05 12:09:27;;;;;;;19.02;2.20;;;;;;;;;;5133757;27;20078;-79
2022/01/05 12:12:02;;;;;;;18.40;2.40;;;;;;;;;;5150234;27;20075;-80
2022/01/05 12:14:34;;;;;;;22.45;2.50;;;;;;;;;;5132254;27;20530;-79
2022/01/05 12:17:01;;;;;;;21.60;2.72;;;;;;;;;;5132109;27;20232;-82
2022/01/05 12:19:27;;;;;;;16.80;2.35;;;;;;;;;;5133118;27;20051;-79
2022/01/05 12:21:55;;;;;;;17.48;2.70;;;;;;;;;;5132021;27;20517;-80
2022/01/05 12:24:22;;;;;;;20.23;2.95;;;;;;;;;;5150341;27;20125;-81
2022/01/05 12:27:07;;;;;;;23.05;3.53;;;;;;;;;;5151260;27;20098;-80
2022/01/05 12:29:34;;;;;;;15.88;2.80;;;;;;;;;;5144545;27;20047;-81
2022/01/05 12:32:05;;;;;;;15.85;3.03;;;;;;;;;;5134160;27;20144;-81
2022/01/05 12:34:56;;;;;;;18.80;2.95;;;;;;;;;;5151062;27;20105;-79
2022/01/05 12:37:38;;;;;;;21.05;2.70;;;;;;;;;;5150320;27;20108;-80
2022/01/05 12:40:23;;;;;;;18.10;2.75;;;;;;;;;;5133228;27;20081;-80
2022/01/05 12:43:06;;;;;;;20.23;3.25;;;;;;;;;;5135618;27;20086;-81
2022/01/05 12:45:44;;;;;;;18.23;3.13;;;;;;;;;;5132264;27;20059;-84
2022/01/05 12:48:30;;;;;;;19.83;2.63;;;;;;;;;;5131615;27;20059;-79
2022/01/05 12:51:14;;;;;;;18.13;2.35;;;;;;;;;;5145353;27;20055;-80
2022/01/05 12:54:02;;;;;;;23.63;3.15;;;;;;;;;;5151723;27;20063;-82
2022/01/05 12:56:49;;;;;;;20.30;2.67;;;;;;;;;;5151238;27;20773;-82
2022/01/05 12:59:17;;;;;;;20.63;2.95;;;;;;;;;;5152566;27;20055;-79
2022/01/05 13:01:44;;;;;;;16.83;2.00;;;;;;;;;;5149361;27;20043;-80
2022/01/05 13:04:12;;;;;;;13.32;2.38;;;;;;;;;;5134578;27;20051;-80
2022/01/05 13:06:39;;;;;;;23.88;2.92;;;;;;;;;;5119940;27;20055;-78
2022/01/05 13:09:08;;;;;;;20.52;2.25;;;;;;;;;;5146135;27;20152;-79
2022/01/05 13:11:50;;;;;;;15.25;2.38;;;;;;;;;;5142040;27;20072;-78
2022/01/05 13:14:20;;;;;;;18.80;3.13;;;;;;;;;;5148628;27;21027;-81
2022/01/05 13:16:48;;;;;;;16.50;2.63;;;;;;;;;;5140691;27;20137;-79
2022/01/05 13:19:31;;;;;;;21.30;2.97;;;;;;;;;;5131183;27;20081;-81
2022/01/05 13:21:59;;;;;;;17.95;2.75;;;;;;;;;;5127514;27;20584;-78
2022/01/05 13:24:42;;;;;;;26.05;3.50;;;;;;;;;;5147332;27;20047;-78
2022/01/05 13:27:09;;;;;;;16.65;3.45;;;;;;;;;;5145162;27;20525;-78
2022/01/05 13:29:36;;;;;;;19.08;2.75;;;;;;;;;;5147131;27;20104;-78
2022/01/05 13:32:07;;;;;;;24.40;2.95;;;;;;;;;;5139699;27;20525;-79
2022/01/05 13:34:34;;;;;;;34.22;4.88;;;;;;;;;;5136970;27;20482;-78
2022/01/05 13:37:01;;;;;;;23.50;2.75;;;;;;;;;;5122632;27;20051;-80
2022/01/05 13:39:44;;;;;;;24.13;2.53;;;;;;;;;;5129075;27;20054;-79
2022/01/05 13:42:15;;;;;;;16.17;2.58;;;;;;;;;;5127480;27;20062;-78
2022/01/05 13:44:42;;;;;;;14.00;2.25;;;;;;;;;;5128534;27;20136;-78
2022/01/05 13:47:12;;;;;;;22.52;3.17;;;;;;;;;;5128702;27;20402;-78
2022/01/05 13:49:39;;;;;;;23.67;3.85;;;;;;;;;;5130553;27;20075;-78
2022/01/05 13:52:12;;;;;;;24.42;2.85;;;;;;;;;;5142377;27;20082;-78
2022/01/05 13:54:40;;;;;;;28.38;4.30;;;;;;;;;;5148855;27;20104;-78
2022/01/05 13:57:24;;;;;;;26.95;3.28;;;;;;;;;;5121427;27;20101;-78
2022/01/05 13:59:56;;;;;;;15.35;2.22;;;;;;;;;;5139876;27;20054;-81
2022/01/05 14:02:22;;;;;;;25.17;3.53;;;;;;;;;;5143965;27;20055;-79
2022/01/05 14:04:50;;;;;;;16.02;2.67;;;;;;;;;;5133917;27;20551;-78
2022/01/05 14:07:18;;;;;;;15.52;2.33;;;;;;;;;;5125176;27;20083;-79
2022/01/05 14:09:45;;;;;;;22.88;3.15;;;;;;;;;;5127994;27;20087;-80
2022/01/05 14:12:28;;;;;;;17.90;2.78;;;;;;;;;;5129292;27;20059;-78
2022/01/05 14:14:55;;;;;;;22.00;2.78;;;;;;;;;;5145525;27;20105;-81
2022/01/05 14:17:21;;;;;;;24.67;3.72;;;;;;;;;;5135168;27;20059;-79
2022/01/05 14:19:48;;;;;;;17.63;2.97;;;;;;;;;;5125973;27;20051;-80
2022/01/05 14:22:19;;;;;;;22.95;2.97;;;;;;;;;;5153067;27;20055;-78
2022/01/05 14:24:46;;;;;;;;;;;;;;;;;;5128336;27;20051;-82
2022/01/05 14:27:16;;;;;;;17.08;2.20;;;;;;;;;;5137191;27;45695;-80
2022/01/05 14:29:43;;;;;;;17.90;3.53;;;;;;;;;;5128209;27;20055;-78
2022/01/05 14:32:13;;;;;;;19.27;2.35;;;;;;;;;;5143445;27;20054;-80
2022/01/05 14:34:41;;;;;;;19.80;2.95;;;;;;;;;;5130588;27;21028;-81
2022/01/05 14:37:09;;;;;;;20.73;2.83;;;;;;;;;;5138410;27;20132;-80
2022/01/05 14:39:39;;;;;;;17.17;2.67;;;;;;;;;;5142606;27;20117;-78
2022/01/05 14:42:08;;;;;;;21.83;3.33;;;;;;;;;;5151359;27;20107;-81